sensor_id;sensor_type;location;lat;lon;timestamp;pressure;altitude;pressure_sealevel;temperature;humidity
21728;BME280;11026;50.560;17.852;2023-02-11T00:01:33;101244.78;;;-0.49;84.18
21728;BME280;11026;50.560;17.852;2023-02-11T00:04:01;101248.00;;;-0.59;84.21
21728;BME280;11026;50.560;17.852;2023-02-11T00:06:31;101244.19;;;-0.70;84.67
21728;BME280;11026;50.560;17.852;2023-02-11T00:08:59;101234.59;;;-0.73;85.19
21728;BME280;11026;50.560;17.852;2023-02-11T00:11:28;101227.72;;;-0.71;85.07
21728;BME280;11026;50.560;17.852;2023-02-11T00:14:02;101215.63;;;-0.69;85.14
21728;BME280;11026;50.560;17.852;2023-02-11T00:16:31;101212.72;;;-0.80;85.19
21728;BME280;11026;50.560;17.852;2023-02-11T00:19:00;101216.06;;;-0.84;85.42
21728;BME280;11026;50.560;17.852;2023-02-11T00:21:28;101210.28;;;-0.75;85.54
21728;BME280;11026;50.560;17.852;2023-02-11T00:23:56;101208.47;;;-0.78;85.25
21728;BME280;11026;50.560;17.852;2023-02-11T00:26:30;101220.59;;;-0.78;84.91
21728;BME280;11026;50.560;17.852;2023-02-11T00:28:58;101218.84;;;-0.79;85.09
21728;BME280;11026;50.560;17.852;2023-02-11T00:31:27;101208.13;;;-0.90;85.35
21728;BME280;11026;50.560;17.852;2023-02-11T00:33:55;101193.91;;;-1.03;85.67
21728;BME280;11026;50.560;17.852;2023-02-11T00:36:25;101191.72;;;-1.17;86.40
21728;BME280;11026;50.560;17.852;2023-02-11T00:38:54;101193.34;;;-1.21;87.02
21728;BME280;11026;50.560;17.852;2023-02-11T00:41:22;101197.56;;;-1.25;87.47
21728;BME280;11026;50.560;17.852;2023-02-11T00:43:51;101190.41;;;-1.32;87.94
21728;BME280;11026;50.560;17.852;2023-02-11T00:46:20;101189.72;;;-1.26;88.25
21728;BME280;11026;50.560;17.852;2023-02-11T00:48:48;101181.88;;;-1.28;88.70
21728;BME280;11026;50.560;17.852;2023-02-11T00:51:17;101166.28;;;-1.28;88.59
21728;BME280;11026;50.560;17.852;2023-02-11T00:53:46;101157.69;;;-1.27;88.63
21728;BME280;11026;50.560;17.852;2023-02-11T00:56:15;101149.09;;;-1.24;88.81
21728;BME280;11026;50.560;17.852;2023-02-11T00:58:43;101150.72;;;-1.28;88.72
21728;BME280;11026;50.560;17.852;2023-02-11T01:01:12;101141.28;;;-1.26;88.70
21728;BME280;11026;50.560;17.852;2023-02-11T01:03:41;101129.25;;;-1.22;88.77
21728;BME280;11026;50.560;17.852;2023-02-11T01:06:09;101125.81;;;-1.21;88.70
21728;BME280;11026;50.560;17.852;2023-02-11T01:08:37;101113.72;;;-1.20;88.46
21728;BME280;11026;50.560;17.852;2023-02-11T01:11:09;101114.81;;;-1.12;87.97
21728;BME280;11026;50.560;17.852;2023-02-11T01:13:38;101129.63;;;-1.08;87.96
21728;BME280;11026;50.560;17.852;2023-02-11T01:16:07;101125.44;;;-1.03;87.35
21728;BME280;11026;50.560;17.852;2023-02-11T01:18:36;101115.97;;;-1.03;87.06
21728;BME280;11026;50.560;17.852;2023-02-11T01:21:05;101109.25;;;-0.94;86.90
21728;BME280;11026;50.560;17.852;2023-02-11T01:23:34;101108.19;;;-1.01;87.11
21728;BME280;11026;50.560;17.852;2023-02-11T01:26:04;101109.97;;;-1.00;86.84
21728;BME280;11026;50.560;17.852;2023-02-11T01:28:32;101099.88;;;-0.89;86.41
21728;BME280;11026;50.560;17.852;2023-02-11T01:31:01;101104.59;;;-1.06;86.73
21728;BME280;11026;50.560;17.852;2023-02-11T01:33:29;101113.41;;;-1.01;86.45
21728;BME280;11026;50.560;17.852;2023-02-11T01:36:02;101101.78;;;-1.14;87.12
21728;BME280;11026;50.560;17.852;2023-02-11T01:38:31;101091.28;;;-0.87;86.88
21728;BME280;11026;50.560;17.852;2023-02-11T01:41:05;101093.19;;;-1.11;86.89
21728;BME280;11026;50.560;17.852;2023-02-11T01:43:36;101092.38;;;-1.10;87.54
21728;BME280;11026;50.560;17.852;2023-02-11T01:48:35;101081.78;;;-1.16;87.70
21728;BME280;11026;50.560;17.852;2023-02-11T01:51:19;101078.00;;;-1.28;87.85
21728;BME280;11026;50.560;17.852;2023-02-11T01:53:48;101070.28;;;-1.26;87.95
21728;BME280;11026;50.560;17.852;2023-02-11T01:56:40;101053.22;;;-0.85;86.37
21728;BME280;11026;50.560;17.852;2023-02-11T01:59:31;101053.44;;;-0.76;85.63
21728;BME280;11026;50.560;17.852;2023-02-11T02:02:02;101043.13;;;-0.74;85.09
21728;BME280;11026;50.560;17.852;2023-02-11T02:04:37;101038.69;;;-0.78;84.61
21728;BME280;11026;50.560;17.852;2023-02-11T02:07:10;101043.75;;;-0.83;84.15
21728;BME280;11026;50.560;17.852;2023-02-11T02:09:41;101047.25;;;-0.81;83.86
21728;BME280;11026;50.560;17.852;2023-02-11T02:12:10;101042.81;;;-0.85;83.45
21728;BME280;11026;50.560;17.852;2023-02-11T02:14:39;101035.38;;;-1.04;83.69
21728;BME280;11026;50.560;17.852;2023-02-11T02:17:09;101035.88;;;-0.86;84.07
21728;BME280;11026;50.560;17.852;2023-02-11T02:20:02;101032.53;;;-0.82;83.89
21728;BME280;11026;50.560;17.852;2023-02-11T02:25:35;101037.63;;;-0.85;83.94
21728;BME280;11026;50.560;17.852;2023-02-11T02:34:02;101014.91;;;-0.92;84.64
21728;BME280;11026;50.560;17.852;2023-02-11T02:36:42;101005.38;;;-0.93;84.56
21728;BME280;11026;50.560;17.852;2023-02-11T02:39:19;101020.06;;;-0.95;84.82
21728;BME280;11026;50.560;17.852;2023-02-11T02:41:50;101002.88;;;-0.90;84.13
21728;BME280;11026;50.560;17.852;2023-02-11T02:44:21;100988.13;;;-0.91;83.98
21728;BME280;11026;50.560;17.852;2023-02-11T02:46:48;100991.84;;;-0.80;83.09
21728;BME280;11026;50.560;17.852;2023-02-11T02:49:22;100985.75;;;-0.82;82.83
21728;BME280;11026;50.560;17.852;2023-02-11T02:54:56;100991.03;;;-0.79;82.07
21728;BME280;11026;50.560;17.852;2023-02-11T03:03:28;100968.34;;;-0.84;82.11
21728;BME280;11026;50.560;17.852;2023-02-11T03:06:10;100966.72;;;-0.81;82.39
21728;BME280;11026;50.560;17.852;2023-02-11T03:08:50;100949.38;;;-0.82;82.31
21728;BME280;11026;50.560;17.852;2023-02-11T03:11:21;100934.38;;;-0.92;82.76
21728;BME280;11026;50.560;17.852;2023-02-11T03:13:51;100936.03;;;-0.95;83.29
21728;BME280;11026;50.560;17.852;2023-02-11T03:16:26;100928.28;;;-0.94;83.45
21728;BME280;11026;50.560;17.852;2023-02-11T03:19:08;100928.31;;;-0.92;83.57
21728;BME280;11026;50.560;17.852;2023-02-11T03:21:39;100923.13;;;-0.92;83.45
21728;BME280;11026;50.560;17.852;2023-02-11T03:24:15;100929.16;;;-0.93;83.41
21728;BME280;11026;50.560;17.852;2023-02-11T03:26:54;100919.63;;;-0.94;83.88
21728;BME280;11026;50.560;17.852;2023-02-11T03:29:34;100920.44;;;-0.95;83.75
21728;BME280;11026;50.560;17.852;2023-02-11T03:32:39;100916.28;;;-0.89;83.54
21728;BME280;11026;50.560;17.852;2023-02-11T03:35:43;100924.84;;;-0.93;83.56
21728;BME280;11026;50.560;17.852;2023-02-11T03:38:21;100915.50;;;-0.86;83.21
21728;BME280;11026;50.560;17.852;2023-02-11T03:40:53;100921.47;;;-0.89;82.99
21728;BME280;11026;50.560;17.852;2023-02-11T03:43:27;100915.22;;;-0.97;83.53
21728;BME280;11026;50.560;17.852;2023-02-11T03:45:57;100919.16;;;-0.78;83.47
21728;BME280;11026;50.560;17.852;2023-02-11T03:48:48;100913.00;;;-0.82;82.84
21728;BME280;11026;50.560;17.852;2023-02-11T03:51:20;100909.22;;;-0.94;83.26
21728;BME280;11026;50.560;17.852;2023-02-11T03:53:52;100896.06;;;-1.01;83.81
21728;BME280;11026;50.560;17.852;2023-02-11T03:56:25;100899.41;;;-1.06;84.14
21728;BME280;11026;50.560;17.852;2023-02-11T03:58:54;100891.50;;;-1.11;84.48
21728;BME280;11026;50.560;17.852;2023-02-11T04:01:22;100882.97;;;-1.05;84.89
21728;BME280;11026;50.560;17.852;2023-02-11T04:03:49;100876.16;;;-1.00;84.71
21728;BME280;11026;50.560;17.852;2023-02-11T04:06:17;100887.97;;;-1.14;84.93
21728;BME280;11026;50.560;17.852;2023-02-11T04:08:44;100887.78;;;-1.20;85.83
21728;BME280;11026;50.560;17.852;2023-02-11T04:11:12;100894.59;;;-1.26;86.68
21728;BME280;11026;50.560;17.852;2023-02-11T04:13:39;100887.38;;;-1.03;86.40
21728;BME280;11026;50.560;17.852;2023-02-11T04:16:07;100887.63;;;-0.92;85.94
21728;BME280;11026;50.560;17.852;2023-02-11T04:18:34;100881.41;;;-0.98;85.84
21728;BME280;11026;50.560;17.852;2023-02-11T04:21:03;100884.97;;;-0.95;85.99
21728;BME280;11026;50.560;17.852;2023-02-11T04:23:30;100881.59;;;-0.91;85.69
21728;BME280;11026;50.560;17.852;2023-02-11T04:25:57;100900.00;;;-1.16;85.65
21728;BME280;11026;50.560;17.852;2023-02-11T04:28:25;100884.97;;;-0.95;86.22
21728;BME280;11026;50.560;17.852;2023-02-11T04:30:55;100877.38;;;-0.86;85.74
21728;BME280;11026;50.560;17.852;2023-02-11T04:33:23;100884.59;;;-1.10;85.91
21728;BME280;11026;50.560;17.852;2023-02-11T04:35:50;100879.88;;;-1.25;86.87
21728;BME280;11026;50.560;17.852;2023-02-11T04:38:19;100883.91;;;-1.38;87.78
21728;BME280;11026;50.560;17.852;2023-02-11T04:40:46;100878.75;;;-1.35;88.39
21728;BME280;11026;50.560;17.852;2023-02-11T04:43:14;100877.75;;;-1.07;88.17
21728;BME280;11026;50.560;17.852;2023-02-11T04:45:41;100869.88;;;-1.10;88.00
21728;BME280;11026;50.560;17.852;2023-02-11T04:48:10;100877.78;;;-1.05;87.64
21728;BME280;11026;50.560;17.852;2023-02-11T04:50:38;100882.88;;;-1.43;88.61
21728;BME280;11026;50.560;17.852;2023-02-11T04:53:06;100872.44;;;-1.46;89.42
21728;BME280;11026;50.560;17.852;2023-02-11T04:55:33;100875.75;;;-1.18;89.00
21728;BME280;11026;50.560;17.852;2023-02-11T04:58:01;100867.81;;;-1.23;88.56
21728;BME280;11026;50.560;17.852;2023-02-11T05:00:29;100866.03;;;-1.26;88.71
21728;BME280;11026;50.560;17.852;2023-02-11T05:02:56;100866.63;;;-1.36;89.32
21728;BME280;11026;50.560;17.852;2023-02-11T05:05:25;100860.34;;;-1.45;89.76
21728;BME280;11026;50.560;17.852;2023-02-11T05:07:54;100874.19;;;-1.45;90.28
21728;BME280;11026;50.560;17.852;2023-02-11T05:10:22;100868.16;;;-1.44;90.44
21728;BME280;11026;50.560;17.852;2023-02-11T05:12:49;100863.03;;;-1.41;90.64
21728;BME280;11026;50.560;17.852;2023-02-11T05:15:19;100854.50;;;-1.37;90.45
21728;BME280;11026;50.560;17.852;2023-02-11T05:17:48;100847.78;;;-1.29;90.59
21728;BME280;11026;50.560;17.852;2023-02-11T05:20:15;100857.19;;;-1.34;90.66
21728;BME280;11026;50.560;17.852;2023-02-11T05:22:43;100855.53;;;-1.30;90.84
21728;BME280;11026;50.560;17.852;2023-02-11T05:25:11;100847.22;;;-1.15;90.58
21728;BME280;11026;50.560;17.852;2023-02-11T05:27:38;100850.06;;;-1.06;90.12
21728;BME280;11026;50.560;17.852;2023-02-11T05:30:06;100851.03;;;-1.03;89.83
21728;BME280;11026;50.560;17.852;2023-02-11T05:32:34;100853.56;;;-1.04;90.11
21728;BME280;11026;50.560;17.852;2023-02-11T05:35:01;100851.22;;;-0.95;89.63
21728;BME280;11026;50.560;17.852;2023-02-11T05:37:28;100843.81;;;-0.77;88.90
21728;BME280;11026;50.560;17.852;2023-02-11T05:39:56;100847.25;;;-0.78;88.21
21728;BME280;11026;50.560;17.852;2023-02-11T05:42:24;100845.91;;;-0.60;87.29
21728;BME280;11026;50.560;17.852;2023-02-11T05:44:52;100846.69;;;-0.64;86.95
21728;BME280;11026;50.560;17.852;2023-02-11T05:47:20;100840.66;;;-0.63;86.91
21728;BME280;11026;50.560;17.852;2023-02-11T05:49:48;100833.69;;;-0.64;86.79
21728;BME280;11026;50.560;17.852;2023-02-11T05:52:18;100823.19;;;-0.70;86.80
21728;BME280;11026;50.560;17.852;2023-02-11T05:54:45;100822.19;;;-0.76;87.03
21728;BME280;11026;50.560;17.852;2023-02-11T05:57:14;100811.59;;;-0.85;87.29
21728;BME280;11026;50.560;17.852;2023-02-11T05:59:44;100810.63;;;-0.90;87.83
21728;BME280;11026;50.560;17.852;2023-02-11T06:02:11;100807.97;;;-0.91;88.26
21728;BME280;11026;50.560;17.852;2023-02-11T06:04:41;100814.84;;;-0.95;88.65
21728;BME280;11026;50.560;17.852;2023-02-11T06:07:09;100814.09;;;-0.88;88.84
21728;BME280;11026;50.560;17.852;2023-02-11T06:09:43;100811.38;;;-0.94;89.03
21728;BME280;11026;50.560;17.852;2023-02-11T06:12:10;100808.63;;;-1.00;89.44
21728;BME280;11026;50.560;17.852;2023-02-11T06:14:43;100805.25;;;-0.96;89.65
21728;BME280;11026;50.560;17.852;2023-02-11T06:17:10;100815.16;;;-0.80;89.45
21728;BME280;11026;50.560;17.852;2023-02-11T06:19:40;100818.50;;;-0.85;88.93
21728;BME280;11026;50.560;17.852;2023-02-11T06:22:08;100808.91;;;-0.88;89.11
21728;BME280;11026;50.560;17.852;2023-02-11T06:24:35;100810.72;;;-0.84;89.04
21728;BME280;11026;50.560;17.852;2023-02-11T06:27:24;100822.53;;;-0.60;88.33
21728;BME280;11026;50.560;17.852;2023-02-11T06:29:52;100825.34;;;-0.51;87.66
21728;BME280;11026;50.560;17.852;2023-02-11T06:32:20;100823.97;;;-0.34;87.23
21728;BME280;11026;50.560;17.852;2023-02-11T06:35:08;100825.78;;;-0.30;87.03
21728;BME280;11026;50.560;17.852;2023-02-11T06:37:39;100820.03;;;-0.13;86.71
21728;BME280;11026;50.560;17.852;2023-02-11T06:40:07;100825.94;;;-0.20;86.17
21728;BME280;11026;50.560;17.852;2023-02-11T06:42:35;100813.88;;;-0.18;86.35
21728;BME280;11026;50.560;17.852;2023-02-11T06:45:07;100807.81;;;-0.17;85.99
21728;BME280;11026;50.560;17.852;2023-02-11T06:47:41;100800.09;;;-0.14;86.63
21728;BME280;11026;50.560;17.852;2023-02-11T06:50:11;100793.16;;;-0.12;86.32
21728;BME280;11026;50.560;17.852;2023-02-11T06:52:39;100794.97;;;-0.08;86.46
21728;BME280;11026;50.560;17.852;2023-02-11T06:55:13;100796.78;;;-0.04;86.30
21728;BME280;11026;50.560;17.852;2023-02-11T06:57:40;100788.22;;;0.00;86.25
21728;BME280;11026;50.560;17.852;2023-02-11T07:00:09;100781.88;;;-0.14;86.59
21728;BME280;11026;50.560;17.852;2023-02-11T07:02:37;100782.91;;;-0.06;86.84
21728;BME280;11026;50.560;17.852;2023-02-11T07:05:06;100782.97;;;-0.03;86.87
21728;BME280;11026;50.560;17.852;2023-02-11T07:07:33;100770.28;;;0.15;86.48
21728;BME280;11026;50.560;17.852;2023-02-11T07:10:01;100766.88;;;0.19;85.92
21728;BME280;11026;50.560;17.852;2023-02-11T07:12:30;100768.53;;;0.16;85.30
21728;BME280;11026;50.560;17.852;2023-02-11T07:14:57;100759.13;;;0.22;84.91
21728;BME280;11026;50.560;17.852;2023-02-11T07:17:26;100760.91;;;0.25;84.74
21728;BME280;11026;50.560;17.852;2023-02-11T07:19:53;100759.34;;;0.35;84.72
21728;BME280;11026;50.560;17.852;2023-02-11T07:22:21;100758.44;;;0.33;84.11
21728;BME280;11026;50.560;17.852;2023-02-11T07:24:49;100749.78;;;0.35;84.32
21728;BME280;11026;50.560;17.852;2023-02-11T07:27:17;100745.38;;;0.30;84.92
21728;BME280;11026;50.560;17.852;2023-02-11T07:29:45;100762.13;;;0.45;84.53
21728;BME280;11026;50.560;17.852;2023-02-11T07:32:14;100751.03;;;0.57;84.38
21728;BME280;11026;50.560;17.852;2023-02-11T07:34:42;100756.38;;;0.66;83.47
21728;BME280;11026;50.560;17.852;2023-02-11T07:37:09;100758.16;;;0.67;83.45
21728;BME280;11026;50.560;17.852;2023-02-11T07:39:37;100765.16;;;0.73;83.06
21728;BME280;11026;50.560;17.852;2023-02-11T07:42:04;100765.91;;;0.64;83.03
21728;BME280;11026;50.560;17.852;2023-02-11T07:44:32;100770.19;;;0.62;83.27
21728;BME280;11026;50.560;17.852;2023-02-11T07:47:06;100765.06;;;0.65;83.02
21728;BME280;11026;50.560;17.852;2023-02-11T07:49:37;100770.63;;;0.90;82.69
21728;BME280;11026;50.560;17.852;2023-02-11T07:52:05;100768.00;;;0.88;82.49
21728;BME280;11026;50.560;17.852;2023-02-11T07:54:32;100773.28;;;0.93;81.84
21728;BME280;11026;50.560;17.852;2023-02-11T07:57:01;100778.63;;;1.01;81.43
21728;BME280;11026;50.560;17.852;2023-02-11T07:59:28;100768.25;;;1.07;81.14
21728;BME280;11026;50.560;17.852;2023-02-11T08:01:56;100783.19;;;1.15;81.01
21728;BME280;11026;50.560;17.852;2023-02-11T08:04:23;100765.88;;;1.20;80.78
21728;BME280;11026;50.560;17.852;2023-02-11T08:06:51;100764.34;;;1.36;80.37
21728;BME280;11026;50.560;17.852;2023-02-11T08:09:24;100754.94;;;1.49;79.64
21728;BME280;11026;50.560;17.852;2023-02-11T08:11:52;100767.25;;;1.61;78.68
21728;BME280;11026;50.560;17.852;2023-02-11T08:14:19;100768.38;;;1.83;77.92
21728;BME280;11026;50.560;17.852;2023-02-11T08:16:47;100764.13;;;1.91;77.38
21728;BME280;11026;50.560;17.852;2023-02-11T08:19:15;100762.50;;;2.05;76.70
21728;BME280;11026;50.560;17.852;2023-02-11T08:21:43;100751.34;;;2.18;76.57
21728;BME280;11026;50.560;17.852;2023-02-11T08:24:11;100740.03;;;2.19;75.90
21728;BME280;11026;50.560;17.852;2023-02-11T08:26:39;100747.06;;;2.27;75.37
21728;BME280;11026;50.560;17.852;2023-02-11T08:29:12;100748.94;;;2.40;74.73
21728;BME280;11026;50.560;17.852;2023-02-11T08:31:43;100750.69;;;2.42;74.79
21728;BME280;11026;50.560;17.852;2023-02-11T08:34:12;100757.72;;;2.51;74.41
21728;BME280;11026;50.560;17.852;2023-02-11T08:36:41;100759.44;;;2.47;74.30
21728;BME280;11026;50.560;17.852;2023-02-11T08:39:13;100756.09;;;2.62;74.42
21728;BME280;11026;50.560;17.852;2023-02-11T08:41:49;100752.69;;;2.74;74.11
21728;BME280;11026;50.560;17.852;2023-02-11T08:44:18;100767.56;;;2.83;73.69
21728;BME280;11026;50.560;17.852;2023-02-11T08:46:46;100769.31;;;2.84;73.32
21728;BME280;11026;50.560;17.852;2023-02-11T08:49:14;100770.25;;;2.93;73.36
21728;BME280;11026;50.560;17.852;2023-02-11T08:51:42;100770.25;;;2.95;73.03
21728;BME280;11026;50.560;17.852;2023-02-11T08:54:09;100779.00;;;3.05;72.55
21728;BME280;11026;50.560;17.852;2023-02-11T08:56:37;100776.34;;;2.94;72.63
21728;BME280;11026;50.560;17.852;2023-02-11T08:59:06;100784.31;;;3.15;72.41
21728;BME280;11026;50.560;17.852;2023-02-11T09:01:36;100779.09;;;3.15;72.33
21728;BME280;11026;50.560;17.852;2023-02-11T09:04:04;100791.31;;;3.18;72.00
21728;BME280;11026;50.560;17.852;2023-02-11T09:06:31;100787.00;;;3.22;72.07
21728;BME280;11026;50.560;17.852;2023-02-11T09:08:59;100796.56;;;3.24;71.73
21728;BME280;11026;50.560;17.852;2023-02-11T09:11:32;100794.84;;;3.28;72.54
21728;BME280;11026;50.560;17.852;2023-02-11T09:14:02;100785.28;;;3.30;71.87
21728;BME280;11026;50.560;17.852;2023-02-11T09:16:33;100779.19;;;3.31;72.10
21728;BME280;11026;50.560;17.852;2023-02-11T09:19:04;100767.88;;;3.36;72.22
21728;BME280;11026;50.560;17.852;2023-02-11T09:21:31;100779.28;;;3.46;72.57
21728;BME280;11026;50.560;17.852;2023-02-11T09:23:59;100775.75;;;3.44;73.03
21728;BME280;11026;50.560;17.852;2023-02-11T09:26:32;100778.41;;;3.47;72.68
21728;BME280;11026;50.560;17.852;2023-02-11T09:29:01;100777.59;;;3.62;72.55
21728;BME280;11026;50.560;17.852;2023-02-11T09:31:31;100768.91;;;3.74;72.61
21728;BME280;11026;50.560;17.852;2023-02-11T09:34:02;100768.03;;;3.72;72.89
21728;BME280;11026;50.560;17.852;2023-02-11T09:36:34;100759.34;;;3.82;72.65
21728;BME280;11026;50.560;17.852;2023-02-11T09:39:07;100752.44;;;4.08;72.42
21728;BME280;11026;50.560;17.852;2023-02-11T09:44:45;100752.47;;;4.30;71.91
21728;BME280;11026;50.560;17.852;2023-02-11T09:47:33;100744.59;;;4.31;71.86
21728;BME280;11026;50.560;17.852;2023-02-11T09:50:39;100740.22;;;4.16;71.92
21728;BME280;11026;50.560;17.852;2023-02-11T09:53:06;100733.22;;;4.15;72.01
21728;BME280;11026;50.560;17.852;2023-02-11T09:55:44;100734.97;;;4.06;71.90
21728;BME280;11026;50.560;17.852;2023-02-11T10:04:03;100688.72;;;4.17;71.87
21728;BME280;11026;50.560;17.852;2023-02-11T10:06:48;100685.22;;;4.27;71.53
21728;BME280;11026;50.560;17.852;2023-02-11T10:09:40;100671.25;;;4.30;72.18
21728;BME280;11026;50.560;17.852;2023-02-11T10:21:14;100651.16;;;4.35;71.47
21728;BME280;11026;50.560;17.852;2023-02-11T10:23:53;100648.56;;;4.29;71.85
21728;BME280;11026;50.560;17.852;2023-02-11T10:26:23;100642.44;;;4.36;71.75
21728;BME280;11026;50.560;17.852;2023-02-11T10:28:58;100645.94;;;4.44;71.08
21728;BME280;11026;50.560;17.852;2023-02-11T10:31:39;100635.41;;;4.53;71.15
21728;BME280;11026;50.560;17.852;2023-02-11T10:34:10;100642.41;;;4.47;71.23
21728;BME280;11026;50.560;17.852;2023-02-11T10:36:43;100636.31;;;4.46;71.21
21728;BME280;11026;50.560;17.852;2023-02-11T10:39:22;100631.94;;;4.45;71.15
21728;BME280;11026;50.560;17.852;2023-02-11T10:41:54;100633.69;;;4.43;71.61
21728;BME280;11026;50.560;17.852;2023-02-11T10:44:43;100624.94;;;4.39;71.65
21728;BME280;11026;50.560;17.852;2023-02-11T10:47:21;100637.19;;;4.48;71.92
21728;BME280;11026;50.560;17.852;2023-02-11T10:49:52;100618.81;;;4.50;71.86
21728;BME280;11026;50.560;17.852;2023-02-11T10:52:26;100618.81;;;4.50;72.54
21728;BME280;11026;50.560;17.852;2023-02-11T10:57:37;100612.69;;;4.64;72.53
21728;BME280;11026;50.560;17.852;2023-02-11T11:03:00;100603.94;;;4.65;72.05
21728;BME280;11026;50.560;17.852;2023-02-11T11:05:31;100617.94;;;4.61;72.38
21728;BME280;11026;50.560;17.852;2023-02-11T11:08:06;100603.06;;;4.59;71.89
21728;BME280;11026;50.560;17.852;2023-02-11T11:10:43;100603.09;;;4.56;72.33
21728;BME280;11026;50.560;17.852;2023-02-11T11:13:33;100596.97;;;4.64;72.48
21728;BME280;11026;50.560;17.852;2023-02-11T11:18:43;100594.34;;;4.60;72.45
21728;BME280;11026;50.560;17.852;2023-02-11T11:21:41;100596.94;;;4.74;72.80
21728;BME280;11026;50.560;17.852;2023-02-11T11:26:50;100592.53;;;4.82;72.54
21728;BME280;11026;50.560;17.852;2023-02-11T11:29:41;100587.28;;;4.85;72.29
21728;BME280;11026;50.560;17.852;2023-02-11T11:32:24;100600.38;;;4.91;72.19
21728;BME280;11026;50.560;17.852;2023-02-11T11:34:57;100597.78;;;4.82;72.63
21728;BME280;11026;50.560;17.852;2023-02-11T11:37:38;100604.72;;;4.97;72.76
21728;BME280;11026;50.560;17.852;2023-02-11T11:40:29;100623.09;;;4.95;73.13
21728;BME280;11026;50.560;17.852;2023-02-11T11:45:56;100623.13;;;4.71;74.17
21728;BME280;11026;50.560;17.852;2023-02-11T11:48:34;100635.41;;;4.72;74.15
21728;BME280;11026;50.560;17.852;2023-02-11T11:51:08;100624.91;;;4.72;74.50
21728;BME280;11026;50.560;17.852;2023-02-11T11:54:07;100624.91;;;4.65;74.95
21728;BME280;11026;50.560;17.852;2023-02-11T11:56:55;100619.66;;;4.62;75.43
21728;BME280;11026;50.560;17.852;2023-02-11T11:59:27;100606.56;;;4.68;75.90
21728;BME280;11026;50.560;17.852;2023-02-11T12:04:46;100603.94;;;4.68;76.46
21728;BME280;11026;50.560;17.852;2023-02-11T12:07:43;100608.34;;;4.56;77.00
21728;BME280;11026;50.560;17.852;2023-02-11T12:16:05;100613.53;;;4.71;77.53
21728;BME280;11026;50.560;17.852;2023-02-11T12:24:36;100602.22;;;4.58;78.67
21728;BME280;11026;50.560;17.852;2023-02-11T12:35:26;100601.41;;;4.24;80.91
21728;BME280;11026;50.560;17.852;2023-02-11T12:41:03;100585.72;;;4.16;81.92
21728;BME280;11026;50.560;17.852;2023-02-11T12:43:40;100558.63;;;4.17;82.00
21728;BME280;11026;50.560;17.852;2023-02-11T12:46:32;100556.00;;;4.19;81.45
21728;BME280;11026;50.560;17.852;2023-02-11T12:55:01;100549.03;;;4.18;81.38
21728;BME280;11026;50.560;17.852;2023-02-11T12:57:32;100554.25;;;4.15;81.55
21728;BME280;11026;50.560;17.852;2023-02-11T13:00:06;100545.53;;;4.14;81.42
21728;BME280;11026;50.560;17.852;2023-02-11T13:05:31;100520.22;;;4.16;81.43
21728;BME280;11026;50.560;17.852;2023-02-11T13:08:22;100538.53;;;4.29;80.65
21728;BME280;11026;50.560;17.852;2023-02-11T13:10:57;100529.78;;;4.37;79.88
21728;BME280;11026;50.560;17.852;2023-02-11T13:13:32;100517.56;;;4.33;79.81
21728;BME280;11026;50.560;17.852;2023-02-11T13:22:02;100478.19;;;4.56;79.28
21728;BME280;11026;50.560;17.852;2023-02-11T13:25:22;100474.69;;;4.51;79.60
21728;BME280;11026;50.560;17.852;2023-02-11T13:35:32;100500.91;;;4.51;80.36
21728;BME280;11026;50.560;17.852;2023-02-11T13:38:17;100521.84;;;4.51;80.10
21728;BME280;11026;50.560;17.852;2023-02-11T13:40:58;100530.66;;;4.44;80.61
21728;BME280;11026;50.560;17.852;2023-02-11T13:43:32;100510.53;;;4.52;80.87
21728;BME280;11026;50.560;17.852;2023-02-11T13:46:05;100524.50;;;4.45;80.99
21728;BME280;11026;50.560;17.852;2023-02-11T13:48:40;100514.94;;;4.41;81.69
21728;BME280;11026;50.560;17.852;2023-02-11T13:51:15;100514.88;;;4.50;81.59
21728;BME280;11026;50.560;17.852;2023-02-11T13:53:50;100515.75;;;4.51;81.64
21728;BME280;11026;50.560;17.852;2023-02-11T13:56:36;100540.22;;;4.48;82.22
21728;BME280;11026;50.560;17.852;2023-02-11T14:11:02;100529.72;;;4.54;82.68
21728;BME280;11026;50.560;17.852;2023-02-11T14:16:18;100534.97;;;4.51;83.46
21728;BME280;11026;50.560;17.852;2023-02-11T14:19:03;100533.25;;;4.52;83.49
21728;BME280;11026;50.560;17.852;2023-02-11T14:21:35;100527.13;;;4.48;83.59
21728;BME280;11026;50.560;17.852;2023-02-11T14:43:41;100539.41;;;4.26;85.19
21728;BME280;11026;50.560;17.852;2023-02-11T14:46:19;100543.78;;;4.26;85.14
21728;BME280;11026;50.560;17.852;2023-02-11T14:48:50;100563.00;;;4.25;85.07
21728;BME280;11026;50.560;17.852;2023-02-11T14:51:25;100551.66;;;4.13;85.60
21728;BME280;11026;50.560;17.852;2023-02-11T14:54:16;100555.13;;;4.15;85.83
21728;BME280;11026;50.560;17.852;2023-02-11T14:57:22;100565.63;;;4.09;86.36
21728;BME280;11026;50.560;17.852;2023-02-11T14:59:55;100566.50;;;3.98;87.31
21728;BME280;11026;50.560;17.852;2023-02-11T15:02:31;100556.06;;;3.96;87.73
21728;BME280;11026;50.560;17.852;2023-02-11T15:07:49;100563.03;;;3.89;89.19
21728;BME280;11026;50.560;17.852;2023-02-11T15:10:32;100576.97;;;3.82;90.42
21728;BME280;11026;50.560;17.852;2023-02-11T15:13:03;100579.59;;;3.78;92.65
21728;BME280;11026;50.560;17.852;2023-02-11T15:15:32;100583.97;;;3.65;95.03
21728;BME280;11026;50.560;17.852;2023-02-11T15:18:03;100582.19;;;3.52;97.89
21728;BME280;11026;50.560;17.852;2023-02-11T15:20:32;100586.53;;;3.48;100.00
21728;BME280;11026;50.560;17.852;2023-02-11T15:23:05;100590.03;;;3.41;100.00
21728;BME280;11026;50.560;17.852;2023-02-11T15:25:42;100595.25;;;3.29;100.00
21728;BME280;11026;50.560;17.852;2023-02-11T15:28:22;100605.63;;;3.16;100.00
21728;BME280;11026;50.560;17.852;2023-02-11T15:31:01;100604.78;;;3.16;100.00